createdAt,value
2023-01-20T00:00:35.075Z,8.70
2023-01-20T00:03:01.642Z,8.60
2023-01-20T00:05:28.111Z,8.60
2023-01-20T00:07:54.617Z,8.60
2023-01-20T00:10:21.107Z,8.60
2023-01-20T00:12:47.609Z,8.70
2023-01-20T00:15:14.404Z,8.90
2023-01-20T00:17:41.111Z,8.70
2023-01-20T00:20:07.590Z,8.70
2023-01-20T00:22:34.107Z,8.70
2023-01-20T00:25:00.600Z,8.60
2023-01-20T00:27:27.093Z,8.50
2023-01-20T00:29:53.602Z,8.70
2023-01-20T00:32:20.143Z,8.80
2023-01-20T00:34:46.607Z,8.70
2023-01-20T00:37:13.035Z,8.70
2023-01-20T00:39:39.526Z,8.60
2023-01-20T00:42:06.024Z,8.50
2023-01-20T00:44:32.517Z,8.50
2023-01-20T00:46:59.018Z,8.60
2023-01-20T00:49:25.509Z,8.60
2023-01-20T00:51:51.987Z,8.50
2023-01-20T00:54:18.472Z,8.40
2023-01-20T00:56:44.949Z,8.30
2023-01-20T00:59:11.424Z,8.40
2023-01-20T01:01:37.969Z,8.50
2023-01-20T01:04:04.487Z,8.40
2023-01-20T01:06:30.949Z,8.60
2023-01-20T01:08:57.445Z,8.60
2023-01-20T01:11:23.929Z,8.50
2023-01-20T01:13:50.416Z,8.50
2023-01-20T01:16:16.966Z,8.60
2023-01-20T01:18:43.485Z,8.60
2023-01-20T01:21:09.977Z,8.60
2023-01-20T01:23:36.487Z,8.50
2023-01-20T01:26:02.948Z,8.40
2023-01-20T01:28:29.451Z,8.40
2023-01-20T01:30:56.007Z,8.40
2023-01-20T01:33:22.693Z,8.50
2023-01-20T01:35:49.178Z,8.50
2023-01-20T01:38:15.676Z,8.60
2023-01-20T01:40:42.163Z,8.50
2023-01-20T01:43:08.670Z,8.40
2023-01-20T01:45:35.206Z,8.40
2023-01-20T01:48:01.757Z,8.30
2023-01-20T01:50:28.247Z,8.40
2023-01-20T01:52:54.802Z,8.30
2023-01-20T01:55:21.318Z,8.40
2023-01-20T01:57:47.781Z,8.60
2023-01-20T02:00:14.248Z,8.90
2023-01-20T02:02:40.775Z,9.20
2023-01-20T02:05:07.289Z,9.40
2023-01-20T02:07:33.768Z,9.50
2023-01-20T02:10:00.267Z,9.60
2023-01-20T02:12:26.787Z,9.70
2023-01-20T02:14:53.224Z,9.60
2023-01-20T02:17:19.712Z,9.60
2023-01-20T02:19:46.185Z,9.60
2023-01-20T02:22:12.655Z,9.70
2023-01-20T02:24:39.174Z,9.70
2023-01-20T02:27:05.668Z,9.50
2023-01-20T02:29:32.124Z,9.50
2023-01-20T02:31:58.681Z,9.50
2023-01-20T02:34:25.193Z,9.50
2023-01-20T02:36:51.664Z,9.40
2023-01-20T02:39:26.981Z,9.20
2023-01-20T02:41:54.189Z,9.30
2023-01-20T02:44:20.863Z,9.20
2023-01-20T02:46:47.328Z,9.20
2023-01-20T02:49:13.815Z,9.10
2023-01-20T02:51:40.273Z,8.80
2023-01-20T02:54:21.806Z,8.90
2023-01-20T02:56:48.293Z,9.00
2023-01-20T02:59:14.822Z,9.10
2023-01-20T03:01:41.396Z,9.20
2023-01-20T03:04:07.959Z,9.20
2023-01-20T03:06:34.513Z,9.40
2023-01-20T03:09:00.996Z,9.20
2023-01-20T03:11:27.466Z,9.00
2023-01-20T03:13:53.956Z,9.20
2023-01-20T03:16:20.489Z,9.20
2023-01-20T03:18:47.016Z,9.20
2023-01-20T03:21:13.503Z,9.20
2023-01-20T03:23:40.011Z,9.00
2023-01-20T03:26:06.513Z,9.10
2023-01-20T03:28:33.005Z,9.20
2023-01-20T03:30:59.694Z,9.30
2023-01-20T03:33:26.212Z,9.30
2023-01-20T03:35:52.714Z,9.10
2023-01-20T03:38:19.183Z,9.10
2023-01-20T03:40:45.678Z,9.10
2023-01-20T03:43:12.158Z,9.10
2023-01-20T03:45:38.663Z,9.10
2023-01-20T03:48:05.154Z,9.00
2023-01-20T03:50:31.619Z,9.00
2023-01-20T03:52:58.103Z,8.90
2023-01-20T03:55:24.596Z,8.80
2023-01-20T03:57:51.088Z,8.90
2023-01-20T04:00:17.581Z,8.90
2023-01-20T04:02:44.063Z,8.90
2023-01-20T04:05:10.532Z,8.90
2023-01-20T04:07:37.014Z,8.90
2023-01-20T04:10:03.530Z,9.00
2023-01-20T04:12:30.027Z,9.00
2023-01-20T04:14:56.485Z,9.10
2023-01-20T04:17:22.964Z,9.20
2023-01-20T04:19:49.466Z,9.00
2023-01-20T04:22:15.937Z,9.10
2023-01-20T04:24:42.404Z,9.10
2023-01-20T04:27:08.901Z,9.00
2023-01-20T04:29:35.385Z,9.10
2023-01-20T04:32:01.964Z,9.20
2023-01-20T04:34:28.519Z,9.10
2023-01-20T04:36:55.023Z,8.90
2023-01-20T04:39:21.534Z,9.00
2023-01-20T04:41:48.004Z,9.00
2023-01-20T04:44:14.470Z,9.10
2023-01-20T04:46:41.068Z,9.30
2023-01-20T04:49:07.622Z,9.10
2023-01-20T04:51:34.118Z,9.10
2023-01-20T04:54:00.582Z,8.80
2023-01-20T04:56:27.055Z,8.90
2023-01-20T04:58:53.543Z,9.00
2023-01-20T05:01:20.076Z,8.90
2023-01-20T05:03:46.605Z,8.80
2023-01-20T05:06:13.080Z,8.90
2023-01-20T05:08:39.562Z,8.90
2023-01-20T05:11:06.052Z,9.00
2023-01-20T05:13:32.545Z,8.90
2023-01-20T05:16:01.867Z,8.90
2023-01-20T05:18:29.261Z,8.90
2023-01-20T05:20:55.752Z,8.90
2023-01-20T05:23:22.233Z,8.70
2023-01-20T05:25:48.727Z,8.60
2023-01-20T05:28:15.208Z,8.70
2023-01-20T05:30:41.825Z,8.70
2023-01-20T05:33:08.363Z,8.80
2023-01-20T05:35:34.847Z,8.70
2023-01-20T05:38:01.310Z,8.80
2023-01-20T05:40:27.804Z,8.90
2023-01-20T05:42:54.268Z,9.00
2023-01-20T05:45:20.742Z,8.90
2023-01-20T05:47:47.222Z,8.90
2023-01-20T05:50:13.697Z,9.00
2023-01-20T05:52:40.190Z,9.00
2023-01-20T05:55:06.662Z,9.00
2023-01-20T05:57:33.158Z,8.90
2023-01-20T05:59:59.619Z,8.90
2023-01-20T06:02:26.135Z,9.00
2023-01-20T06:04:52.634Z,9.00
2023-01-20T06:07:19.104Z,9.00
2023-01-20T06:09:45.575Z,8.80
2023-01-20T06:12:12.057Z,8.80
2023-01-20T06:14:38.545Z,8.80
2023-01-20T06:17:05.027Z,8.80
2023-01-20T06:19:31.515Z,8.90
2023-01-20T06:21:57.994Z,8.90
2023-01-20T06:24:24.496Z,8.80
2023-01-20T06:26:51.020Z,8.80
2023-01-20T06:29:17.497Z,8.80
2023-01-20T06:31:44.059Z,8.90
2023-01-20T06:34:10.591Z,8.90
2023-01-20T06:36:37.070Z,8.90
2023-01-20T06:39:03.543Z,8.80
2023-01-20T06:41:30.026Z,8.80
2023-01-20T06:43:56.495Z,8.90
2023-01-20T06:46:23.029Z,8.80
2023-01-20T06:48:49.519Z,8.80
2023-01-20T06:51:16.007Z,8.80
2023-01-20T06:53:42.496Z,8.80
2023-01-20T06:56:08.976Z,8.80
2023-01-20T06:58:35.460Z,8.60
2023-01-20T07:01:02.159Z,8.80
2023-01-20T07:03:28.727Z,8.70
2023-01-20T07:05:55.224Z,8.70
2023-01-20T07:08:21.715Z,8.60
2023-01-20T07:10:48.190Z,8.70
2023-01-20T07:13:14.684Z,8.80
2023-01-20T07:15:41.171Z,8.80
2023-01-20T07:18:07.650Z,8.80
2023-01-20T07:20:34.137Z,8.90
2023-01-20T07:25:50.730Z,8.90
2023-01-20T07:28:17.221Z,9.00
2023-01-20T07:30:43.736Z,8.80
2023-01-20T07:33:10.220Z,8.90
2023-01-20T07:35:36.696Z,8.80
2023-01-20T07:38:03.190Z,8.80
2023-01-20T07:40:29.668Z,8.80
2023-01-20T07:42:56.133Z,8.90
2023-01-20T07:45:22.636Z,8.80
2023-01-20T07:47:49.113Z,8.80
2023-01-20T07:50:15.603Z,8.80
2023-01-20T07:52:42.089Z,8.70
2023-01-20T07:55:08.574Z,8.80
2023-01-20T07:57:35.057Z,8.70
2023-01-20T08:00:01.546Z,8.60
2023-01-20T08:02:28.035Z,8.60
2023-01-20T08:04:54.548Z,8.80
2023-01-20T08:07:21.055Z,8.80
2023-01-20T08:09:47.537Z,8.90
2023-01-20T08:12:14.016Z,9.00
2023-01-20T08:14:40.500Z,8.80
2023-01-20T08:17:06.989Z,8.80
2023-01-20T08:19:33.461Z,8.80
2023-01-20T08:22:00.111Z,8.80
2023-01-20T08:24:26.640Z,8.80
2023-01-20T08:26:53.114Z,8.80
2023-01-20T08:29:19.581Z,8.90
2023-01-20T08:31:46.133Z,8.80
2023-01-20T08:34:12.724Z,8.80
2023-01-20T08:36:39.212Z,8.80
2023-01-20T08:39:05.717Z,8.70
2023-01-20T08:41:32.232Z,8.70
2023-01-20T08:43:58.722Z,8.80
2023-01-20T08:46:25.251Z,8.80
2023-01-20T08:48:51.789Z,8.80
2023-01-20T08:51:18.275Z,8.70
2023-01-20T08:53:44.775Z,8.70
2023-01-20T08:56:11.270Z,8.70
2023-01-20T08:58:37.753Z,8.80
2023-01-20T09:01:04.308Z,8.70
2023-01-20T09:03:33.054Z,8.80
2023-01-20T09:05:59.687Z,8.80
2023-01-20T09:08:26.152Z,8.80
2023-01-20T09:10:55.177Z,8.70
2023-01-20T09:13:21.652Z,8.70
2023-01-20T09:15:48.163Z,8.70
2023-01-20T09:18:14.677Z,8.70
2023-01-20T09:20:41.174Z,8.60
2023-01-20T09:23:07.642Z,8.70
2023-01-20T09:25:34.122Z,8.60
2023-01-20T09:28:00.589Z,8.80
2023-01-20T09:30:27.075Z,8.70
2023-01-20T09:32:55.424Z,8.70
2023-01-20T09:35:21.937Z,8.70
2023-01-20T09:37:48.400Z,8.70
2023-01-20T09:40:15.075Z,8.80
2023-01-20T09:42:41.702Z,8.80
2023-01-20T09:45:08.223Z,8.80
2023-01-20T09:47:34.699Z,8.80
2023-01-20T09:50:01.187Z,8.80
2023-01-20T09:52:27.673Z,8.80
2023-01-20T09:54:54.143Z,8.80
2023-01-20T09:57:25.196Z,8.80
2023-01-20T09:59:51.697Z,8.80
2023-01-20T10:02:18.184Z,8.90
2023-01-20T10:04:44.679Z,9.00
2023-01-20T10:07:11.174Z,8.90
2023-01-20T10:09:37.671Z,8.90
2023-01-20T10:12:04.147Z,8.80
2023-01-20T10:14:30.629Z,8.90
2023-01-20T10:16:57.106Z,9.00
2023-01-20T10:19:23.593Z,8.80
2023-01-20T10:21:50.081Z,8.90
2023-01-20T10:24:16.558Z,9.00
2023-01-20T10:26:43.042Z,8.80
2023-01-20T10:29:09.516Z,8.60
2023-01-20T10:31:36.061Z,8.60
2023-01-20T10:34:02.630Z,8.70
2023-01-20T10:36:29.129Z,8.90
2023-01-20T10:38:55.599Z,8.60
2023-01-20T10:41:22.098Z,8.60
2023-01-20T10:43:48.576Z,8.40
2023-01-20T10:46:15.118Z,8.70
2023-01-20T10:48:41.611Z,8.50
2023-01-20T10:51:08.079Z,8.50
2023-01-20T10:53:34.563Z,8.60
2023-01-20T10:56:01.056Z,8.60
2023-01-20T10:58:27.550Z,8.50
2023-01-20T11:00:54.035Z,8.50
2023-01-20T11:03:20.586Z,8.70
2023-01-20T11:05:47.111Z,8.60
2023-01-20T11:08:13.581Z,8.50
2023-01-20T11:10:40.072Z,8.50
2023-01-20T11:13:06.549Z,8.50
2023-01-20T11:15:33.018Z,8.40
2023-01-20T11:17:59.505Z,8.40
2023-01-20T11:20:25.993Z,8.60
2023-01-20T11:22:52.469Z,8.50
2023-01-20T11:25:18.952Z,8.50
2023-01-20T11:27:49.268Z,8.60
2023-01-20T11:30:16.017Z,8.60
2023-01-20T11:32:42.722Z,8.60
2023-01-20T11:35:09.203Z,8.90
2023-01-20T11:37:35.673Z,9.00
2023-01-20T11:40:02.205Z,8.90
2023-01-20T11:42:28.699Z,8.80
2023-01-20T11:44:55.186Z,8.80
2023-01-20T11:47:21.664Z,8.90
2023-01-20T11:49:48.165Z,8.90
2023-01-20T11:52:14.638Z,9.00
2023-01-20T11:54:43.288Z,9.00
2023-01-20T11:57:09.750Z,9.00
2023-01-20T11:59:36.269Z,9.30
2023-01-20T12:04:46.595Z,8.90
2023-01-20T12:07:13.084Z,9.10
2023-01-20T12:09:43.307Z,9.20
2023-01-20T12:12:09.775Z,9.30
2023-01-20T12:14:36.256Z,9.10
2023-01-20T12:17:02.747Z,9.10
2023-01-20T12:19:29.352Z,9.20
2023-01-20T12:21:55.824Z,9.20
2023-01-20T12:24:23.050Z,9.20
2023-01-20T12:26:50.422Z,9.10
2023-01-20T12:29:16.904Z,9.10
2023-01-20T12:31:43.449Z,9.30
2023-01-20T12:34:09.988Z,9.10
2023-01-20T12:36:36.481Z,9.00
2023-01-20T12:39:03.002Z,9.10
2023-01-20T12:41:29.505Z,9.00
2023-01-20T12:43:55.998Z,9.00
2023-01-20T12:46:22.485Z,9.30
2023-01-20T12:48:48.985Z,9.50
2023-01-20T12:51:15.477Z,9.40
2023-01-20T12:53:41.972Z,9.40
2023-01-20T12:56:08.539Z,9.20
2023-01-20T12:58:35.090Z,9.20
2023-01-20T13:01:07.438Z,9.20
2023-01-20T13:03:33.924Z,9.40
2023-01-20T13:06:00.418Z,9.30
2023-01-20T13:08:27.182Z,9.30
2023-01-20T13:10:53.689Z,9.50
2023-01-20T13:13:20.306Z,9.30
2023-01-20T13:15:46.841Z,9.50
2023-01-20T13:18:13.308Z,9.50
2023-01-20T13:20:39.814Z,9.50
2023-01-20T13:23:06.275Z,9.80
2023-01-20T13:25:32.771Z,9.70
2023-01-20T13:27:59.245Z,9.60
2023-01-20T13:30:25.734Z,9.60
2023-01-20T13:32:52.210Z,9.60
2023-01-20T13:35:18.694Z,9.70
2023-01-20T13:37:45.359Z,9.70
2023-01-20T13:40:11.841Z,9.70
2023-01-20T13:42:38.304Z,9.70
2023-01-20T13:45:04.763Z,9.60
2023-01-20T13:47:31.257Z,9.70
2023-01-20T13:49:57.743Z,9.80
2023-01-20T13:52:24.237Z,9.90
2023-01-20T13:54:50.713Z,9.80
2023-01-20T13:57:17.209Z,9.90
2023-01-20T13:59:43.675Z,9.80
2023-01-20T14:02:10.184Z,9.60
2023-01-20T14:04:36.663Z,9.70
2023-01-20T14:07:03.139Z,9.80
2023-01-20T14:09:29.630Z,9.70
2023-01-20T14:11:56.125Z,9.60
2023-01-20T14:14:22.637Z,9.50
2023-01-20T14:16:49.087Z,9.80
2023-01-20T14:19:15.577Z,9.70
2023-01-20T14:21:42.090Z,9.90
2023-01-20T14:24:08.595Z,9.90
2023-01-20T14:26:35.077Z,9.80
2023-01-20T14:29:01.552Z,9.90
2023-01-20T14:31:28.103Z,9.80
2023-01-20T14:33:54.645Z,9.80
2023-01-20T14:36:21.137Z,9.90
2023-01-20T14:38:56.947Z,9.80
2023-01-20T14:41:24.412Z,9.80
2023-01-20T14:43:50.890Z,9.90
2023-01-20T14:46:17.366Z,9.80
2023-01-20T14:48:43.903Z,9.80
2023-01-20T14:51:12.857Z,9.90
2023-01-20T14:53:39.524Z,9.90
2023-01-20T14:56:06.023Z,10.00
2023-01-20T14:58:32.489Z,9.90
2023-01-20T15:00:58.987Z,9.80
2023-01-20T15:03:25.533Z,9.80
2023-01-20T15:05:52.065Z,9.90
2023-01-20T15:08:18.601Z,9.90
2023-01-20T15:10:45.112Z,9.90
2023-01-20T15:13:13.420Z,10.00
2023-01-20T15:15:39.976Z,9.90
2023-01-20T15:18:06.480Z,10.00
2023-01-20T15:20:32.969Z,10.00
2023-01-20T15:22:59.467Z,10.00
2023-01-20T15:25:25.943Z,9.90
2023-01-20T15:27:52.443Z,9.90
2023-01-20T15:30:19.562Z,10.00
2023-01-20T15:32:46.308Z,10.00
2023-01-20T15:37:56.766Z,9.90
2023-01-20T15:40:25.468Z,9.90
2023-01-20T15:42:51.966Z,9.90
2023-01-20T15:45:18.430Z,9.90
2023-01-20T15:47:44.908Z,10.00
2023-01-20T15:50:11.392Z,9.90
2023-01-20T15:52:37.868Z,9.90
2023-01-20T15:55:04.364Z,10.00
2023-01-20T15:57:30.846Z,10.00
2023-01-20T15:59:57.320Z,9.90
2023-01-20T16:02:23.868Z,10.00
2023-01-20T16:04:50.412Z,10.10
2023-01-20T16:07:16.917Z,10.10
2023-01-20T16:09:43.414Z,10.10
2023-01-20T16:12:09.938Z,10.10
2023-01-20T16:14:36.430Z,10.00
2023-01-20T16:17:02.895Z,10.10
2023-01-20T16:19:29.373Z,10.00
2023-01-20T16:21:55.843Z,10.00
2023-01-20T16:24:22.319Z,9.90
2023-01-20T16:26:48.804Z,10.00
2023-01-20T16:29:19.542Z,10.00
2023-01-20T16:31:46.045Z,10.10
2023-01-20T16:34:12.559Z,10.00
2023-01-20T16:36:39.046Z,10.00
2023-01-20T16:39:05.544Z,10.10
2023-01-20T16:41:32.035Z,10.00
2023-01-20T16:43:58.550Z,10.00
2023-01-20T16:46:25.087Z,9.90
2023-01-20T16:48:51.622Z,10.00
2023-01-20T16:51:18.206Z,9.80
2023-01-20T16:53:44.732Z,10.00
2023-01-20T16:56:11.217Z,10.00
2023-01-20T16:58:37.692Z,10.00
2023-01-20T17:01:04.174Z,9.90
2023-01-20T17:03:30.690Z,10.00
2023-01-20T17:05:57.174Z,9.90
2023-01-20T17:08:23.709Z,9.90
2023-01-20T17:10:50.185Z,10.00
2023-01-20T17:13:16.655Z,10.00
2023-01-20T17:15:43.129Z,9.90
2023-01-20T17:18:09.605Z,9.90
2023-01-20T17:20:36.298Z,9.90
2023-01-20T17:23:02.798Z,10.00
2023-01-20T17:25:29.294Z,10.00
2023-01-20T17:27:55.786Z,10.10
2023-01-20T17:30:23.985Z,10.00
2023-01-20T17:32:52.468Z,9.90
2023-01-20T17:35:19.011Z,10.00
2023-01-20T17:37:45.515Z,9.90
2023-01-20T17:40:13.625Z,10.00
2023-01-20T17:42:40.149Z,10.00
2023-01-20T17:45:06.597Z,10.00
2023-01-20T17:47:33.068Z,10.00
2023-01-20T17:49:59.561Z,9.90
2023-01-20T17:52:26.067Z,9.90
2023-01-20T17:54:52.553Z,10.00
2023-01-20T17:57:19.039Z,9.90
2023-01-20T17:59:49.597Z,9.90
2023-01-20T18:02:16.118Z,9.90
2023-01-20T18:04:42.626Z,10.00
2023-01-20T18:07:09.099Z,10.00
2023-01-20T18:09:35.559Z,9.90
2023-01-20T18:12:02.035Z,9.90
2023-01-20T18:14:28.495Z,9.70
2023-01-20T18:16:55.005Z,9.80
2023-01-20T18:19:21.496Z,9.70
2023-01-20T18:21:47.971Z,9.70
2023-01-20T18:24:14.480Z,9.80
2023-01-20T18:26:40.985Z,9.80
2023-01-20T18:29:07.451Z,9.90
2023-01-20T18:31:34.045Z,9.80
2023-01-20T18:34:00.601Z,9.90
2023-01-20T18:36:27.102Z,10.00
2023-01-20T18:38:53.595Z,10.00
2023-01-20T18:41:20.094Z,10.00
2023-01-20T18:43:46.581Z,9.90
2023-01-20T18:46:13.092Z,9.90
2023-01-20T18:48:39.611Z,9.90
2023-01-20T18:51:06.270Z,9.80
2023-01-20T18:53:32.823Z,9.70
2023-01-20T18:55:59.307Z,9.70
2023-01-20T18:58:25.787Z,9.60
2023-01-20T19:00:55.715Z,9.60
2023-01-20T19:03:22.238Z,9.80
2023-01-20T19:05:48.726Z,9.60
2023-01-20T19:08:15.187Z,9.80
2023-01-20T19:10:43.650Z,9.80
2023-01-20T19:13:10.144Z,9.80
2023-01-20T19:15:36.665Z,9.70
2023-01-20T19:18:03.159Z,9.70
2023-01-20T19:20:29.650Z,9.60
2023-01-20T19:22:56.130Z,9.70
2023-01-20T19:25:22.608Z,9.80
2023-01-20T19:27:49.075Z,9.70
2023-01-20T19:30:15.718Z,9.80
2023-01-20T19:32:42.284Z,9.80
2023-01-20T19:35:08.774Z,9.90
2023-01-20T19:37:35.260Z,9.70
2023-01-20T19:40:01.728Z,9.60
2023-01-20T19:42:31.696Z,9.70
2023-01-20T19:44:58.174Z,9.80
2023-01-20T19:47:24.637Z,9.80
2023-01-20T19:49:55.858Z,9.80
2023-01-20T19:52:22.353Z,9.90
2023-01-20T19:54:50.960Z,9.90
2023-01-20T19:57:18.251Z,9.90
2023-01-20T19:59:44.719Z,9.90
2023-01-20T20:02:11.205Z,9.70
2023-01-20T20:04:37.691Z,9.80
2023-01-20T20:07:04.198Z,9.80
2023-01-20T20:09:30.694Z,9.90
2023-01-20T20:11:57.184Z,9.80
2023-01-20T20:14:23.667Z,9.70
2023-01-20T20:16:50.143Z,9.80
2023-01-20T20:19:16.644Z,9.70
2023-01-20T20:21:43.127Z,9.70
2023-01-20T20:24:09.588Z,9.70
2023-01-20T20:26:36.080Z,9.80
2023-01-20T20:29:02.659Z,9.70
2023-01-20T20:31:31.865Z,9.60
2023-01-20T20:33:58.415Z,9.70
2023-01-20T20:36:24.877Z,9.80
2023-01-20T20:38:51.453Z,9.70
2023-01-20T20:41:17.967Z,9.70
2023-01-20T20:43:47.525Z,9.70
2023-01-20T20:46:14.034Z,9.60
2023-01-20T20:48:40.527Z,9.70
2023-01-20T20:51:07.129Z,9.70
2023-01-20T20:53:33.710Z,9.70
2023-01-20T20:56:00.184Z,9.70
2023-01-20T20:58:26.648Z,9.60
2023-01-20T21:00:53.136Z,9.60
2023-01-20T21:03:19.604Z,9.70
2023-01-20T21:05:46.102Z,9.70
2023-01-20T21:08:12.571Z,9.60
2023-01-20T21:10:39.112Z,9.70
2023-01-20T21:13:05.575Z,9.50
2023-01-20T21:15:32.040Z,9.70
2023-01-20T21:17:58.524Z,9.80
2023-01-20T21:20:24.996Z,9.60
2023-01-20T21:22:51.471Z,9.60
2023-01-20T21:25:17.953Z,9.50
2023-01-20T21:27:44.446Z,9.60
2023-01-20T21:30:10.922Z,9.70
2023-01-20T21:32:37.422Z,9.70
2023-01-20T21:35:03.887Z,9.70
2023-01-20T21:37:31.775Z,9.60
2023-01-20T21:39:58.263Z,9.60
2023-01-20T21:42:24.740Z,9.50
2023-01-20T21:44:51.201Z,9.60
2023-01-20T21:47:17.691Z,9.60
2023-01-20T21:49:44.172Z,9.70
2023-01-20T21:52:10.673Z,9.60
2023-01-20T21:54:37.140Z,9.50
2023-01-20T21:57:03.632Z,9.60
2023-01-20T21:59:30.116Z,9.70
2023-01-20T22:01:56.675Z,9.60
2023-01-20T22:04:23.180Z,9.70
2023-01-20T22:06:49.664Z,9.60
2023-01-20T22:09:16.167Z,9.50
2023-01-20T22:11:42.674Z,9.60
2023-01-20T22:14:13.829Z,9.60
2023-01-20T22:16:40.350Z,9.50
2023-01-20T22:19:06.859Z,9.70
2023-01-20T22:21:33.322Z,9.70
2023-01-20T22:24:01.809Z,9.60
2023-01-20T22:26:28.280Z,9.60
2023-01-20T22:28:54.773Z,9.60
2023-01-20T22:31:21.274Z,9.40
2023-01-20T22:33:47.746Z,9.60
2023-01-20T22:36:14.227Z,9.60
2023-01-20T22:38:40.695Z,9.60
2023-01-20T22:41:07.187Z,9.50
2023-01-20T22:43:33.677Z,9.50
2023-01-20T22:46:01.829Z,9.50
2023-01-20T22:48:28.350Z,9.50
2023-01-20T22:50:54.834Z,9.60
2023-01-20T22:53:21.389Z,9.50
2023-01-20T22:56:00.264Z,9.50
2023-01-20T22:58:27.528Z,9.50
2023-01-20T23:00:54.155Z,9.50
2023-01-20T23:03:20.705Z,9.60
2023-01-20T23:05:47.171Z,9.60
2023-01-20T23:08:13.675Z,9.60
2023-01-20T23:10:40.161Z,9.60
2023-01-20T23:13:06.663Z,9.60
2023-01-20T23:15:33.153Z,9.60
2023-01-20T23:17:59.655Z,9.50
2023-01-20T23:20:26.120Z,9.40
2023-01-20T23:22:52.619Z,9.60
2023-01-20T23:25:19.081Z,9.30
2023-01-20T23:27:45.569Z,9.30
2023-01-20T23:30:12.053Z,9.50
2023-01-20T23:32:38.574Z,9.50
2023-01-20T23:35:05.051Z,9.50
2023-01-20T23:37:31.525Z,9.50
2023-01-20T23:39:58.008Z,9.60
2023-01-20T23:42:24.491Z,9.60
2023-01-20T23:44:50.956Z,9.60
2023-01-20T23:47:17.428Z,9.70
2023-01-20T23:49:43.902Z,9.50
2023-01-20T23:52:10.362Z,9.50
2023-01-20T23:54:37.894Z,9.40
2023-01-20T23:57:04.387Z,9.30
2023-01-20T23:59:30.884Z,9.40
